createdAt,value
2023-11-30T00:01:55.698Z,6.35
2023-11-30T00:04:00.662Z,7.28
2023-11-30T00:06:08.472Z,6.70
2023-11-30T00:08:11.017Z,6.38
2023-11-30T00:10:18.976Z,9.20
2023-11-30T00:12:23.938Z,7.05
2023-11-30T00:14:29.024Z,6.63
2023-11-30T00:16:34.186Z,7.60
2023-11-30T00:18:39.553Z,9.80
2023-11-30T00:20:44.536Z,9.02
2023-11-30T00:22:50.099Z,10.70
2023-11-30T00:24:52.458Z,11.00
2023-11-30T00:26:57.407Z,10.65
2023-11-30T00:29:07.512Z,8.65
2023-11-30T00:31:10.073Z,10.13
2023-11-30T00:33:15.115Z,6.63
2023-11-30T00:35:17.557Z,10.32
2023-11-30T00:37:23.038Z,9.35
2023-11-30T00:39:25.427Z,14.77
2023-11-30T00:41:30.335Z,10.43
2023-11-30T00:43:37.625Z,6.68
2023-11-30T00:45:43.454Z,8.70
2023-11-30T00:47:48.571Z,7.90
2023-11-30T00:49:53.441Z,10.23
2023-11-30T00:51:58.341Z,11.82
2023-11-30T00:54:03.329Z,11.88
2023-11-30T00:56:09.602Z,12.38
2023-11-30T00:58:14.669Z,8.88
2023-11-30T01:00:20.221Z,8.73
2023-11-30T01:02:27.836Z,12.85
2023-11-30T01:04:32.756Z,8.13
2023-11-30T01:06:37.885Z,7.85
2023-11-30T01:08:42.829Z,8.63
2023-11-30T01:10:47.916Z,8.05
2023-11-30T01:12:52.703Z,12.98
2023-11-30T01:14:57.925Z,9.52
2023-11-30T01:17:02.873Z,11.98
2023-11-30T01:19:10.990Z,8.77
2023-11-30T01:21:18.950Z,9.90
2023-11-30T01:23:23.904Z,9.20
2023-11-30T01:25:26.159Z,10.63
2023-11-30T01:27:31.047Z,10.52
2023-11-30T01:29:37.572Z,10.75
2023-11-30T01:31:42.552Z,9.68
2023-11-30T01:33:47.509Z,12.00
2023-11-30T01:35:57.313Z,14.07
2023-11-30T01:38:02.255Z,9.07
2023-11-30T01:40:09.997Z,8.85
2023-11-30T01:42:15.470Z,9.00
2023-11-30T01:44:20.266Z,8.15
2023-11-30T01:46:25.730Z,7.47
2023-11-30T01:48:34.028Z,10.88
2023-11-30T01:50:39.389Z,11.40
2023-11-30T01:52:44.517Z,10.75
2023-11-30T01:54:49.819Z,11.15
2023-11-30T01:56:55.616Z,8.88
2023-11-30T01:59:01.055Z,9.30
2023-11-30T02:01:06.363Z,10.55
2023-11-30T02:03:13.140Z,13.65
2023-11-30T02:05:18.107Z,13.13
2023-11-30T02:07:23.100Z,12.85
2023-11-30T02:09:28.160Z,12.13
2023-11-30T02:11:33.188Z,8.02
2023-11-30T02:13:38.275Z,17.17
2023-11-30T02:15:43.163Z,9.05
2023-11-30T02:17:49.685Z,10.25
2023-11-30T02:19:54.616Z,13.27
2023-11-30T02:22:02.210Z,10.80
2023-11-30T02:24:08.730Z,10.70
2023-11-30T02:26:15.273Z,10.93
2023-11-30T02:28:20.611Z,10.23
2023-11-30T02:30:27.578Z,11.43
2023-11-30T02:32:32.488Z,12.50
2023-11-30T02:34:37.441Z,8.98
2023-11-30T02:36:43.055Z,14.60
2023-11-30T02:38:50.597Z,12.55
2023-11-30T02:40:52.945Z,10.93
2023-11-30T02:42:57.746Z,11.70
2023-11-30T02:45:02.724Z,12.85
2023-11-30T02:47:08.015Z,15.45
2023-11-30T02:49:13.619Z,12.40
2023-11-30T02:51:18.679Z,12.18
2023-11-30T02:53:23.656Z,13.90
2023-11-30T02:55:31.313Z,8.50
2023-11-30T02:57:36.572Z,11.13
2023-11-30T02:59:41.492Z,16.90
2023-11-30T03:01:48.054Z,14.10
2023-11-30T03:03:53.135Z,10.90
2023-11-30T03:05:58.044Z,8.60
2023-11-30T03:08:00.452Z,17.40
2023-11-30T03:10:05.795Z,16.38
2023-11-30T03:12:13.818Z,10.15
2023-11-30T03:14:18.779Z,15.57
2023-11-30T03:16:27.443Z,14.02
2023-11-30T03:18:32.566Z,11.40
2023-11-30T03:20:37.557Z,29.17
2023-11-30T03:22:42.676Z,10.77
2023-11-30T03:24:47.603Z,11.38
2023-11-30T03:26:52.607Z,8.00
2023-11-30T03:29:00.229Z,23.65
2023-11-30T03:31:02.446Z,9.75
2023-11-30T03:33:07.523Z,15.23
2023-11-30T03:35:13.189Z,26.77
2023-11-30T03:37:18.188Z,9.70
2023-11-30T03:39:23.104Z,6.57
2023-11-30T03:41:28.062Z,8.98
2023-11-30T03:43:33.263Z,9.95
2023-11-30T03:45:40.889Z,8.45
2023-11-30T03:47:45.742Z,9.75
2023-11-30T03:49:50.648Z,11.90
2023-11-30T03:51:53.097Z,27.90
2023-11-30T03:53:58.210Z,11.85
2023-11-30T03:56:03.131Z,11.52
2023-11-30T03:58:09.257Z,9.07
2023-11-30T04:00:17.845Z,12.75
2023-11-30T04:02:27.144Z,10.18
2023-11-30T04:04:32.413Z,25.40
2023-11-30T04:06:37.335Z,16.48
2023-11-30T04:08:42.718Z,9.95
2023-11-30T04:10:47.883Z,11.93
2023-11-30T04:12:53.995Z,10.48
2023-11-30T04:14:59.013Z,8.25
2023-11-30T04:17:04.888Z,13.23
2023-11-30T04:19:15.853Z,9.50
2023-11-30T04:21:22.335Z,13.27
2023-11-30T04:23:27.364Z,19.10
2023-11-30T04:25:32.305Z,9.65
2023-11-30T04:27:35.967Z,9.00
2023-11-30T04:29:41.208Z,11.70
2023-11-30T04:31:46.435Z,15.32
2023-11-30T04:33:51.245Z,10.07
2023-11-30T04:35:58.807Z,10.07
2023-11-30T04:38:03.774Z,10.48
2023-11-30T04:40:13.694Z,9.43
2023-11-30T04:42:19.022Z,22.25
2023-11-30T04:44:25.880Z,8.65
2023-11-30T04:46:30.981Z,8.40
2023-11-30T04:48:41.567Z,11.35
2023-11-30T04:50:47.639Z,14.95
2023-11-30T04:52:55.133Z,9.98
2023-11-30T04:55:00.370Z,11.05
2023-11-30T04:57:05.463Z,11.00
2023-11-30T04:59:10.830Z,12.27
2023-11-30T05:01:16.025Z,8.95
2023-11-30T05:03:21.437Z,10.27
2023-11-30T05:05:26.891Z,15.52
2023-11-30T05:07:29.540Z,11.75
2023-11-30T05:09:37.363Z,8.63
2023-11-30T05:11:43.350Z,13.15
2023-11-30T05:13:48.197Z,13.77
2023-11-30T05:15:53.130Z,13.60
2023-11-30T05:17:58.191Z,23.65
2023-11-30T05:20:04.940Z,55.65
2023-11-30T05:22:12.284Z,20.13
2023-11-30T05:24:18.297Z,17.92
2023-11-30T05:26:27.408Z,15.63
2023-11-30T05:28:33.609Z,14.82
2023-11-30T05:30:38.672Z,13.88
2023-11-30T05:32:40.896Z,17.27
2023-11-30T05:34:45.799Z,28.30
2023-11-30T05:36:48.736Z,27.30
2023-11-30T05:38:53.987Z,14.00
2023-11-30T05:40:59.347Z,14.38
2023-11-30T05:43:06.952Z,17.08
2023-11-30T05:45:13.046Z,13.13
2023-11-30T05:47:18.932Z,20.95
2023-11-30T05:49:23.818Z,16.30
2023-11-30T05:51:30.302Z,15.38
2023-11-30T05:53:37.193Z,13.43
2023-11-30T05:55:42.045Z,22.73
2023-11-30T05:57:46.899Z,44.17
2023-11-30T05:59:54.488Z,16.77
2023-11-30T06:02:00.977Z,20.73
2023-11-30T06:04:06.365Z,18.02
2023-11-30T06:06:14.470Z,16.92
2023-11-30T06:08:18.626Z,18.30
2023-11-30T06:10:25.985Z,21.95
2023-11-30T06:12:31.075Z,39.70
2023-11-30T06:14:35.948Z,18.13
2023-11-30T06:16:43.640Z,13.60
2023-11-30T06:18:46.107Z,20.85
2023-11-30T06:20:51.149Z,19.90
2023-11-30T06:22:56.058Z,29.33
2023-11-30T06:25:01.100Z,18.02
2023-11-30T06:27:08.358Z,17.60
2023-11-30T06:29:14.965Z,25.25
2023-11-30T06:31:20.426Z,61.08
2023-11-30T06:33:25.283Z,26.35
2023-11-30T06:35:30.137Z,19.85
2023-11-30T06:37:35.018Z,42.17
2023-11-30T06:39:44.490Z,42.90
2023-11-30T06:41:53.623Z,22.65
2023-11-30T06:43:58.906Z,17.60
2023-11-30T06:46:04.016Z,26.63
2023-11-30T06:48:11.848Z,23.88
2023-11-30T06:50:19.610Z,19.88
2023-11-30T06:52:24.508Z,29.75
2023-11-30T06:54:27.346Z,24.63
2023-11-30T06:56:32.405Z,50.33
2023-11-30T06:58:37.556Z,48.95
2023-11-30T07:00:44.786Z,19.17
2023-11-30T07:02:49.591Z,26.83
2023-11-30T07:04:54.624Z,21.08
2023-11-30T07:07:02.262Z,26.60
2023-11-30T07:09:07.567Z,41.10
2023-11-30T07:11:15.508Z,19.38
2023-11-30T07:13:20.854Z,26.50
2023-11-30T07:15:28.802Z,27.33
2023-11-30T07:17:38.630Z,30.58
2023-11-30T07:19:40.970Z,24.45
2023-11-30T07:21:46.005Z,30.58
2023-11-30T07:23:54.308Z,24.98
2023-11-30T07:26:00.150Z,47.80
2023-11-30T07:28:07.100Z,24.45
2023-11-30T07:30:13.832Z,20.90
2023-11-30T07:32:19.801Z,23.85
2023-11-30T07:34:25.200Z,26.23
2023-11-30T07:36:30.122Z,29.63
2023-11-30T07:38:36.569Z,25.45
2023-11-30T07:40:44.188Z,30.17
2023-11-30T07:42:49.140Z,28.35
2023-11-30T07:44:52.809Z,26.27
2023-11-30T07:46:57.632Z,30.05
2023-11-30T07:49:02.756Z,27.85
2023-11-30T07:51:08.019Z,23.13
2023-11-30T07:53:13.671Z,28.10
2023-11-30T07:55:18.884Z,28.73
2023-11-30T07:57:23.864Z,28.95
2023-11-30T07:59:28.675Z,29.33
2023-11-30T08:01:33.892Z,30.55
2023-11-30T08:03:41.236Z,19.30
2023-11-30T08:05:47.264Z,31.08
2023-11-30T08:07:52.361Z,24.15
2023-11-30T08:09:57.327Z,35.38
2023-11-30T08:12:02.273Z,32.53
2023-11-30T08:14:10.363Z,24.70
2023-11-30T08:16:18.025Z,40.63
2023-11-30T08:18:26.023Z,27.52
2023-11-30T08:20:28.615Z,30.10
2023-11-30T08:22:33.839Z,69.00
2023-11-30T08:24:40.090Z,30.25
2023-11-30T08:26:47.870Z,27.38
2023-11-30T08:28:53.954Z,30.25
2023-11-30T08:31:02.619Z,26.42
2023-11-30T08:33:08.381Z,31.88
2023-11-30T08:35:13.249Z,30.38
2023-11-30T08:37:21.185Z,26.20
2023-11-30T08:39:27.091Z,26.73
2023-11-30T08:41:32.012Z,38.08
2023-11-30T08:43:37.011Z,38.83
2023-11-30T08:45:41.429Z,29.38
2023-11-30T08:47:49.709Z,41.47
2023-11-30T08:49:54.839Z,25.70
2023-11-30T08:52:00.132Z,28.00
2023-11-30T08:54:05.168Z,33.63
2023-11-30T08:56:11.903Z,25.27
2023-11-30T08:58:17.427Z,50.35
2023-11-30T09:00:23.599Z,23.45
2023-11-30T09:02:32.217Z,56.50
2023-11-30T09:04:39.744Z,32.30
2023-11-30T09:06:44.735Z,23.55
2023-11-30T09:08:49.736Z,22.85
2023-11-30T09:10:54.779Z,24.70
2023-11-30T09:13:04.381Z,21.98
2023-11-30T09:15:10.460Z,49.47
2023-11-30T09:17:16.152Z,29.60
2023-11-30T09:19:20.964Z,24.38
2023-11-30T09:21:31.628Z,24.92
2023-11-30T09:23:36.807Z,30.92
2023-11-30T09:25:41.852Z,28.27
2023-11-30T09:27:44.412Z,32.22
2023-11-30T09:29:49.367Z,34.17
2023-11-30T09:31:55.726Z,30.85
2023-11-30T09:34:01.729Z,38.70
2023-11-30T09:36:07.186Z,38.63
2023-11-30T09:38:14.916Z,29.60
2023-11-30T09:40:20.010Z,35.25
2023-11-30T09:42:26.076Z,56.60
2023-11-30T09:44:31.130Z,28.75
2023-11-30T09:46:36.256Z,32.92
2023-11-30T09:48:41.352Z,31.02
2023-11-30T09:50:46.271Z,37.92
2023-11-30T09:52:51.236Z,27.42
2023-11-30T09:55:01.141Z,29.75
2023-11-30T09:57:06.263Z,29.75
2023-11-30T09:59:11.381Z,33.33
2023-11-30T10:01:16.151Z,30.17
2023-11-30T10:03:23.819Z,37.85
2023-11-30T10:05:30.809Z,28.70
2023-11-30T10:07:37.865Z,37.65
2023-11-30T10:09:44.119Z,32.17
2023-11-30T10:11:51.936Z,39.08
2023-11-30T10:14:00.806Z,45.67
2023-11-30T10:16:07.853Z,37.75
2023-11-30T10:18:13.445Z,44.05
2023-11-30T10:20:18.611Z,37.55
2023-11-30T10:22:24.383Z,40.42
2023-11-30T10:24:29.624Z,32.78
2023-11-30T10:26:37.711Z,47.38
2023-11-30T10:28:42.848Z,37.78
2023-11-30T10:30:48.226Z,39.17
2023-11-30T10:32:53.370Z,41.75
2023-11-30T10:35:05.162Z,41.53
2023-11-30T10:37:10.472Z,37.88
2023-11-30T10:39:18.181Z,52.17
2023-11-30T10:41:31.567Z,55.38
2023-11-30T10:43:42.448Z,43.38
2023-11-30T10:45:51.597Z,45.42
2023-11-30T10:47:55.526Z,46.00
2023-11-30T10:50:07.385Z,47.85
2023-11-30T10:52:11.284Z,40.78
2023-11-30T10:54:24.103Z,43.42
2023-11-30T10:56:29.635Z,46.90
2023-11-30T10:58:34.047Z,45.35
2023-11-30T11:00:40.986Z,45.50
2023-11-30T11:02:50.259Z,45.72
2023-11-30T11:04:56.808Z,41.40
2023-11-30T11:07:07.028Z,47.72
2023-11-30T11:09:17.093Z,49.33
2023-11-30T11:11:25.962Z,44.78
2023-11-30T11:13:30.895Z,54.28
2023-11-30T11:15:36.081Z,43.92
2023-11-30T11:17:52.557Z,41.20
2023-11-30T11:19:57.458Z,46.45
2023-11-30T11:22:02.500Z,53.40
2023-11-30T11:24:09.984Z,48.97
2023-11-30T11:26:20.780Z,49.55
2023-11-30T11:28:27.522Z,42.45
2023-11-30T11:30:32.453Z,45.97
2023-11-30T11:32:40.610Z,42.53
2023-11-30T11:34:48.749Z,42.47
2023-11-30T11:36:53.814Z,40.75
2023-11-30T11:38:58.905Z,41.67
2023-11-30T11:41:03.940Z,54.00
2023-11-30T11:43:09.306Z,48.03
2023-11-30T11:45:14.468Z,41.63
2023-11-30T11:47:17.001Z,47.70
2023-11-30T11:49:22.170Z,48.40
2023-11-30T11:51:28.615Z,45.03
2023-11-30T11:53:35.209Z,57.50
2023-11-30T11:55:41.752Z,46.28
2023-11-30T11:57:48.482Z,48.53
2023-11-30T11:59:57.866Z,47.88
2023-11-30T12:02:03.137Z,46.17
2023-11-30T12:04:05.990Z,42.30
2023-11-30T12:08:31.173Z,39.72
2023-11-30T12:10:40.819Z,41.90
2023-11-30T12:12:45.977Z,47.10
2023-11-30T12:14:52.119Z,38.95
2023-11-30T12:16:57.415Z,43.60
2023-11-30T12:18:59.856Z,41.53
2023-11-30T12:21:04.998Z,39.47
2023-11-30T12:23:12.856Z,38.00
2023-11-30T12:25:18.221Z,34.00
2023-11-30T12:27:23.171Z,37.67
2023-11-30T12:29:28.081Z,34.63
2023-11-30T12:31:31.124Z,37.80
2023-11-30T12:33:37.341Z,37.20
2023-11-30T12:35:42.744Z,36.15
2023-11-30T12:37:47.945Z,37.70
2023-11-30T12:39:52.940Z,37.92
2023-11-30T12:42:03.580Z,34.45
2023-11-30T12:44:11.704Z,34.78
2023-11-30T12:46:14.704Z,33.10
2023-11-30T12:48:19.706Z,31.83
2023-11-30T12:50:24.625Z,39.42
2023-11-30T12:52:29.795Z,31.63
2023-11-30T12:54:34.792Z,27.73
2023-11-30T12:56:37.568Z,21.58
2023-11-30T12:58:45.208Z,23.33
2023-11-30T13:00:50.280Z,28.40
2023-11-30T13:02:55.464Z,28.67
2023-11-30T13:05:03.056Z,25.60
2023-11-30T13:07:08.315Z,32.72
2023-11-30T13:09:15.159Z,29.95
2023-11-30T13:11:20.167Z,27.70
2023-11-30T13:13:37.471Z,24.70
2023-11-30T13:15:49.581Z,24.98
2023-11-30T13:17:54.575Z,29.00
2023-11-30T13:19:57.328Z,27.50
2023-11-30T13:22:03.076Z,28.52
2023-11-30T13:24:08.586Z,26.80
2023-11-30T13:26:14.037Z,30.67
2023-11-30T13:28:18.978Z,24.92
2023-11-30T13:30:28.241Z,30.15
2023-11-30T13:32:37.746Z,29.40
2023-11-30T13:34:42.870Z,32.17
2023-11-30T13:36:48.951Z,32.47
2023-11-30T13:38:54.173Z,27.13
2023-11-30T13:41:02.710Z,28.42
2023-11-30T13:43:05.291Z,32.28
2023-11-30T13:45:11.276Z,27.27
2023-11-30T13:47:18.201Z,35.78
2023-11-30T13:49:27.682Z,36.17
2023-11-30T13:51:33.008Z,31.60
2023-11-30T13:53:37.948Z,29.88
2023-11-30T13:55:44.044Z,37.05
2023-11-30T13:57:49.031Z,28.77
2023-11-30T13:59:54.008Z,31.90
2023-11-30T14:01:59.060Z,25.80
2023-11-30T14:04:05.327Z,34.30
2023-11-30T14:06:14.280Z,33.03
2023-11-30T14:08:19.225Z,31.20
2023-11-30T14:10:23.980Z,28.70
2023-11-30T14:12:31.913Z,32.75
2023-11-30T14:14:39.495Z,32.90
2023-11-30T14:16:44.956Z,27.58
2023-11-30T14:18:49.850Z,32.05
2023-11-30T14:20:54.983Z,32.30
2023-11-30T14:23:03.014Z,25.67
2023-11-30T14:25:11.770Z,27.75
2023-11-30T14:27:16.822Z,29.50
2023-11-30T14:29:22.234Z,23.77
2023-11-30T14:31:27.485Z,27.75
2023-11-30T14:33:32.451Z,26.27
2023-11-30T14:35:38.048Z,24.55
2023-11-30T14:37:43.456Z,29.20
2023-11-30T14:39:51.773Z,28.52
2023-11-30T14:41:57.765Z,27.50
2023-11-30T14:44:04.226Z,28.45
2023-11-30T14:46:12.758Z,35.28
2023-11-30T14:48:18.463Z,29.83
2023-11-30T14:50:23.577Z,35.53
2023-11-30T14:52:26.353Z,46.63
2023-11-30T14:54:31.822Z,33.03
2023-11-30T14:56:42.362Z,36.33
2023-11-30T14:58:47.258Z,28.90
2023-11-30T15:00:52.285Z,32.75
2023-11-30T15:02:56.297Z,32.63
2023-11-30T15:05:01.478Z,34.22
2023-11-30T15:07:03.886Z,29.00
2023-11-30T15:09:09.742Z,34.55
2023-11-30T15:11:15.018Z,33.15
2023-11-30T15:13:23.147Z,27.92
2023-11-30T15:15:28.308Z,23.75
2023-11-30T15:17:38.560Z,27.63
2023-11-30T15:19:43.669Z,33.25
2023-11-30T15:21:48.885Z,40.10
2023-11-30T15:23:53.905Z,40.92
2023-11-30T15:25:58.966Z,37.97
2023-11-30T15:28:05.225Z,30.65
2023-11-30T15:30:14.894Z,67.05
2023-11-30T15:32:19.979Z,43.15
2023-11-30T15:34:25.000Z,37.92
2023-11-30T15:36:30.112Z,30.52
2023-11-30T15:38:37.144Z,40.17
2023-11-30T15:40:42.173Z,40.65
2023-11-30T15:42:47.881Z,34.13
2023-11-30T15:44:53.074Z,31.02
2023-11-30T15:47:00.874Z,31.10
2023-11-30T15:49:06.535Z,30.92
2023-11-30T15:51:12.738Z,34.75
2023-11-30T15:53:17.808Z,36.85
2023-11-30T15:55:24.084Z,55.15
2023-11-30T15:57:29.496Z,31.75
2023-11-30T15:59:34.530Z,31.02
2023-11-30T16:01:40.821Z,35.28
2023-11-30T16:03:48.568Z,50.88
2023-11-30T16:05:53.517Z,49.22
2023-11-30T16:07:58.664Z,67.93
2023-11-30T16:10:00.904Z,85.82
2023-11-30T16:12:06.579Z,41.17
2023-11-30T16:14:11.681Z,71.88
2023-11-30T16:16:16.770Z,33.22
2023-11-30T16:18:22.101Z,36.20
2023-11-30T16:20:29.914Z,44.92
2023-11-30T16:22:35.607Z,30.48
2023-11-30T16:24:40.907Z,40.05
2023-11-30T16:26:46.016Z,32.17
2023-11-30T16:28:51.352Z,50.85
2023-11-30T16:30:57.872Z,27.55
2023-11-30T16:33:03.701Z,33.40
2023-11-30T16:35:10.202Z,36.58
2023-11-30T16:37:17.682Z,38.97
2023-11-30T16:39:24.238Z,28.58
2023-11-30T16:41:30.107Z,25.80
2023-11-30T16:43:37.310Z,27.88
2023-11-30T16:45:42.498Z,28.98
2023-11-30T16:47:47.683Z,48.97
2023-11-30T16:49:53.065Z,39.42
2023-11-30T16:51:59.948Z,33.65
2023-11-30T16:54:08.007Z,49.15
2023-11-30T16:56:14.083Z,58.83
2023-11-30T16:58:19.163Z,38.67
2023-11-30T17:00:24.623Z,29.20
2023-11-30T17:02:29.734Z,24.08
2023-11-30T17:04:34.674Z,54.20
2023-11-30T17:06:38.022Z,24.33
2023-11-30T17:08:43.425Z,37.17
2023-11-30T17:10:51.001Z,48.42
2023-11-30T17:12:53.243Z,46.53
2023-11-30T17:14:58.197Z,26.13
2023-11-30T17:17:03.152Z,47.15
2023-11-30T17:19:08.104Z,67.82
2023-11-30T17:21:13.556Z,33.40
2023-11-30T17:23:18.400Z,28.92
2023-11-30T17:25:23.774Z,25.67
2023-11-30T17:27:31.326Z,41.58
2023-11-30T17:29:41.007Z,36.00
2023-11-30T17:31:45.875Z,44.30
2023-11-30T17:33:50.935Z,25.10
2023-11-30T17:35:55.900Z,27.38
2023-11-30T17:38:00.772Z,39.25
2023-11-30T17:40:09.696Z,26.85
2023-11-30T17:42:14.571Z,27.40
2023-11-30T17:44:24.000Z,20.80
2023-11-30T17:46:29.001Z,32.67
2023-11-30T17:48:37.287Z,25.23
2023-11-30T17:50:42.121Z,21.10
2023-11-30T17:52:46.968Z,27.67
2023-11-30T17:54:51.782Z,36.15
2023-11-30T17:57:00.091Z,29.08
2023-11-30T17:59:05.776Z,21.92
2023-11-30T18:01:18.921Z,27.35
2023-11-30T18:03:26.112Z,27.85
2023-11-30T18:05:31.120Z,34.40
2023-11-30T18:07:36.922Z,29.92
2023-11-30T18:09:42.057Z,61.75
2023-11-30T18:11:47.208Z,39.63
2023-11-30T18:13:52.737Z,42.95
2023-11-30T18:15:59.228Z,27.45
2023-11-30T18:18:08.416Z,61.92
2023-11-30T18:20:11.961Z,38.63
2023-11-30T18:22:17.048Z,42.42
2023-11-30T18:24:23.677Z,42.45
2023-11-30T18:26:30.784Z,37.05
2023-11-30T18:28:35.823Z,38.22
2023-11-30T18:30:41.012Z,43.92
2023-11-30T18:32:47.004Z,44.08
2023-11-30T18:34:56.061Z,44.83
2023-11-30T18:37:01.542Z,49.88
2023-11-30T18:39:07.345Z,46.10
2023-11-30T18:41:13.781Z,41.55
2023-11-30T18:43:18.723Z,43.97
2023-11-30T18:45:23.904Z,45.38
2023-11-30T18:47:30.687Z,42.15
2023-11-30T18:49:37.414Z,37.60
2023-11-30T18:51:45.140Z,49.25
2023-11-30T18:53:50.245Z,48.00
2023-11-30T18:55:56.921Z,40.15
2023-11-30T18:58:03.023Z,34.00
2023-11-30T19:00:10.907Z,57.50
2023-11-30T19:02:13.654Z,40.88
2023-11-30T19:04:18.804Z,43.40
2023-11-30T19:06:28.354Z,46.08
2023-11-30T19:08:38.382Z,33.20
2023-11-30T19:10:43.538Z,39.65
2023-11-30T19:12:50.452Z,44.47
2023-11-30T19:14:55.525Z,38.72
2023-11-30T19:17:00.742Z,36.90
2023-11-30T19:19:06.054Z,46.22
2023-11-30T19:21:11.715Z,51.22
2023-11-30T19:23:16.779Z,41.08
2023-11-30T19:25:24.311Z,45.72
2023-11-30T19:27:29.639Z,41.97
2023-11-30T19:29:36.494Z,64.80
2023-11-30T19:31:41.963Z,44.20
2023-11-30T19:33:47.387Z,49.20
2023-11-30T19:35:55.364Z,36.33
2023-11-30T19:38:00.521Z,35.38
2023-11-30T19:40:05.564Z,49.85
2023-11-30T19:42:13.210Z,48.22
2023-11-30T19:44:18.355Z,62.63
2023-11-30T19:46:26.480Z,52.65
2023-11-30T19:48:31.432Z,41.67
2023-11-30T19:50:39.489Z,36.42
2023-11-30T19:52:42.154Z,35.50
2023-11-30T19:54:47.108Z,41.47
2023-11-30T19:56:52.283Z,39.55
2023-11-30T19:59:00.131Z,42.70
2023-11-30T20:01:05.321Z,41.25
2023-11-30T20:03:15.165Z,38.28
2023-11-30T20:05:20.235Z,35.53
2023-11-30T20:07:25.240Z,46.22
2023-11-30T20:09:30.336Z,65.78
2023-11-30T20:11:35.949Z,37.08
2023-11-30T20:13:40.991Z,103.25
2023-11-30T20:15:48.709Z,64.55
2023-11-30T20:17:53.627Z,68.80
2023-11-30T20:19:58.512Z,40.17
2023-11-30T20:22:00.858Z,39.03
2023-11-30T20:24:06.535Z,45.63
2023-11-30T20:26:11.799Z,45.90
2023-11-30T20:28:16.725Z,46.83
2023-11-30T20:30:21.918Z,47.15
2023-11-30T20:32:29.654Z,50.78
2023-11-30T20:34:34.596Z,44.13
2023-11-30T20:36:39.953Z,39.00
2023-11-30T20:38:42.626Z,45.35
2023-11-30T20:40:47.657Z,51.67
2023-11-30T20:42:53.320Z,45.58
2023-11-30T20:44:58.813Z,46.70
2023-11-30T20:47:03.803Z,31.30
2023-11-30T20:49:13.662Z,54.28
2023-11-30T20:51:23.369Z,38.83
2023-11-30T20:53:29.586Z,63.53
2023-11-30T20:55:35.320Z,50.13
2023-11-30T20:57:43.067Z,45.92
2023-11-30T20:59:47.982Z,45.55
2023-11-30T21:01:53.153Z,44.45
2023-11-30T21:03:58.189Z,45.63
2023-11-30T21:06:06.751Z,53.83
2023-11-30T21:08:11.684Z,37.33
2023-11-30T21:10:18.570Z,40.55
2023-11-30T21:12:23.417Z,40.50
2023-11-30T21:14:31.506Z,42.38
2023-11-30T21:16:38.582Z,44.88
2023-11-30T21:18:46.407Z,31.73
2023-11-30T21:20:51.557Z,33.28
2023-11-30T21:22:58.996Z,41.17
2023-11-30T21:25:04.162Z,29.17
2023-11-30T21:27:09.917Z,29.88
2023-11-30T21:29:14.840Z,32.95
2023-11-30T21:31:21.873Z,34.58
2023-11-30T21:33:28.168Z,36.72
2023-11-30T21:35:33.158Z,36.88
2023-11-30T21:37:38.138Z,38.78
2023-11-30T21:39:45.698Z,45.03
2023-11-30T21:41:48.865Z,33.75
2023-11-30T21:43:53.615Z,32.90
2023-11-30T21:45:59.232Z,25.17
2023-11-30T21:48:04.405Z,34.13
2023-11-30T21:50:16.848Z,35.92
2023-11-30T21:52:21.963Z,44.20
2023-11-30T21:54:26.849Z,37.60
2023-11-30T21:56:31.695Z,28.48
2023-11-30T21:58:38.530Z,37.22
2023-11-30T22:00:45.030Z,31.13
2023-11-30T22:02:50.167Z,23.23
2023-11-30T22:04:55.516Z,27.55
2023-11-30T22:07:00.494Z,37.17
2023-11-30T22:09:07.347Z,29.92
2023-11-30T22:11:12.489Z,36.47
2023-11-30T22:13:20.271Z,36.85
2023-11-30T22:15:25.834Z,25.35
2023-11-30T22:17:30.891Z,30.55
2023-11-30T22:19:35.985Z,42.28
2023-11-30T22:21:41.141Z,26.15
2023-11-30T22:23:46.042Z,47.20
2023-11-30T22:25:56.236Z,30.10
2023-11-30T22:28:07.737Z,24.73
2023-11-30T22:30:16.530Z,25.45
2023-11-30T22:32:21.533Z,33.10
2023-11-30T22:34:27.005Z,31.85
2023-11-30T22:36:32.061Z,29.15
2023-11-30T22:38:43.673Z,26.50
2023-11-30T22:40:50.868Z,30.30
2023-11-30T22:42:55.774Z,20.60
2023-11-30T22:45:02.365Z,30.08
2023-11-30T22:47:10.380Z,32.25
2023-11-30T22:49:20.576Z,23.50
2023-11-30T22:51:27.605Z,34.35
2023-11-30T22:53:32.876Z,25.98
2023-11-30T22:55:38.333Z,39.33
2023-11-30T22:57:43.510Z,21.45
2023-11-30T22:59:48.831Z,28.35
2023-11-30T23:01:54.018Z,23.63
2023-11-30T23:04:02.759Z,18.88
2023-11-30T23:06:06.930Z,34.15
2023-11-30T23:08:11.848Z,23.75
2023-11-30T23:10:18.676Z,28.00
2023-11-30T23:12:23.733Z,23.52
2023-11-30T23:14:33.603Z,34.15
2023-11-30T23:16:38.742Z,36.15
2023-11-30T23:18:43.945Z,25.80
2023-11-30T23:20:51.475Z,29.23
2023-11-30T23:22:59.229Z,29.98
2023-11-30T23:25:04.211Z,33.35
2023-11-30T23:27:10.274Z,26.42
2023-11-30T23:29:15.193Z,27.10
2023-11-30T23:31:20.672Z,28.20
2023-11-30T23:33:23.441Z,33.28
2023-11-30T23:35:28.622Z,29.98
2023-11-30T23:37:36.859Z,30.92
2023-11-30T23:39:41.783Z,33.83
2023-11-30T23:41:46.772Z,29.55
2023-11-30T23:43:51.545Z,30.58
2023-11-30T23:45:58.305Z,45.60
2023-11-30T23:48:03.446Z,35.67
2023-11-30T23:50:10.305Z,30.42
2023-11-30T23:52:19.303Z,39.92
2023-11-30T23:54:26.990Z,34.67
2023-11-30T23:56:31.906Z,38.70
2023-11-30T23:58:37.338Z,27.70
